createdAt,value
2022-09-20T00:02:24.779Z,1.27
2022-09-20T00:04:53.360Z,0.90
2022-09-20T00:07:25.616Z,1.00
2022-09-20T00:09:53.995Z,1.13
2022-09-20T00:12:23.313Z,0.93
2022-09-20T00:14:51.705Z,1.20
2022-09-20T00:17:21.066Z,0.90
2022-09-20T00:19:49.826Z,1.00
2022-09-20T00:22:20.496Z,0.90
2022-09-20T00:24:50.123Z,1.17
2022-09-20T00:27:18.362Z,1.40
2022-09-20T00:29:56.238Z,1.27
2022-09-20T00:32:45.893Z,1.13
2022-09-20T00:35:14.324Z,0.80
2022-09-20T00:37:44.035Z,0.97
2022-09-20T00:40:16.067Z,1.30
2022-09-20T00:42:44.606Z,1.00
2022-09-20T00:45:21.612Z,1.00
2022-09-20T00:47:53.532Z,1.20
2022-09-20T00:50:31.132Z,1.10
2022-09-20T00:53:02.317Z,0.83
2022-09-20T00:55:33.700Z,0.93
2022-09-20T00:58:05.248Z,1.00
2022-09-20T01:00:34.742Z,1.00
2022-09-20T01:03:09.263Z,1.03
2022-09-20T01:05:38.367Z,0.97
2022-09-20T01:08:07.249Z,0.90
2022-09-20T01:10:38.071Z,1.10
2022-09-20T01:13:07.058Z,1.00
2022-09-20T01:15:37.722Z,0.80
2022-09-20T01:18:08.716Z,0.90
2022-09-20T01:20:41.672Z,0.97
2022-09-20T01:23:30.092Z,1.00
2022-09-20T01:26:25.695Z,1.00
2022-09-20T01:28:59.799Z,1.00
2022-09-20T01:31:31.646Z,1.00
2022-09-20T01:34:04.279Z,1.00
2022-09-20T01:36:35.302Z,0.93
2022-09-20T01:39:10.830Z,1.10
2022-09-20T01:41:43.295Z,1.10
2022-09-20T01:44:17.147Z,1.20
2022-09-20T01:46:45.812Z,1.20
2022-09-20T01:49:23.276Z,1.00
2022-09-20T01:52:10.858Z,0.93
2022-09-20T01:54:52.799Z,1.03
2022-09-20T01:57:39.210Z,1.30
2022-09-20T02:00:23.895Z,0.83
2022-09-20T02:03:16.099Z,1.30
2022-09-20T02:06:04.428Z,1.23
2022-09-20T02:08:46.638Z,1.10
2022-09-20T02:11:16.902Z,0.80
2022-09-20T02:13:55.761Z,1.00
2022-09-20T02:16:37.111Z,1.07
2022-09-20T02:19:18.714Z,1.17
2022-09-20T02:21:54.836Z,0.90
2022-09-20T02:24:27.311Z,1.20
2022-09-20T02:27:04.496Z,1.20
2022-09-20T02:29:34.939Z,0.80
2022-09-20T02:32:14.141Z,0.90
2022-09-20T02:34:52.593Z,1.43
2022-09-20T02:37:44.037Z,0.97
2022-09-20T02:40:22.985Z,0.90
2022-09-20T02:43:00.105Z,0.83
2022-09-20T02:45:54.553Z,1.00
2022-09-20T02:48:26.331Z,0.90
2022-09-20T02:51:00.161Z,1.17
2022-09-20T02:53:36.951Z,0.97
2022-09-20T02:56:10.611Z,0.80
2022-09-20T02:58:43.140Z,0.70
2022-09-20T03:01:15.059Z,0.90
2022-09-20T03:03:47.657Z,1.03
2022-09-20T03:06:23.771Z,1.10
2022-09-20T03:08:54.721Z,1.20
2022-09-20T03:11:29.349Z,1.00
2022-09-20T03:14:05.449Z,1.20
2022-09-20T03:16:43.475Z,1.13
2022-09-20T03:19:17.714Z,0.87
2022-09-20T03:21:53.890Z,1.17
2022-09-20T03:24:32.093Z,1.27
2022-09-20T03:27:13.539Z,1.17
2022-09-20T03:29:49.026Z,1.43
2022-09-20T03:32:25.610Z,1.10
2022-09-20T03:34:58.742Z,1.20
2022-09-20T03:37:36.437Z,0.93
2022-09-20T03:40:21.633Z,1.20
2022-09-20T03:42:54.090Z,1.30
2022-09-20T03:45:36.034Z,1.07
2022-09-20T03:48:12.352Z,1.70
2022-09-20T03:50:48.567Z,1.30
2022-09-20T03:53:45.217Z,1.57
2022-09-20T03:56:31.285Z,1.10
2022-09-20T03:59:09.849Z,1.50
2022-09-20T04:01:51.251Z,1.53
2022-09-20T04:04:25.014Z,1.50
2022-09-20T04:07:04.283Z,1.37
2022-09-20T04:09:43.026Z,1.50
2022-09-20T04:12:26.958Z,1.10
2022-09-20T04:15:00.566Z,1.10
2022-09-20T04:17:37.755Z,1.03
2022-09-20T04:20:08.843Z,1.10
2022-09-20T04:22:37.392Z,0.80
2022-09-20T04:25:07.556Z,0.80
2022-09-20T04:27:40.236Z,0.70
2022-09-20T04:30:18.378Z,0.70
2022-09-20T04:32:51.056Z,0.43
2022-09-20T04:35:42.927Z,0.80
2022-09-20T04:38:14.793Z,0.70
2022-09-20T04:40:52.737Z,0.73
2022-09-20T04:43:52.308Z,0.80
2022-09-20T04:46:40.241Z,0.83
2022-09-20T04:49:20.615Z,0.70
2022-09-20T04:52:09.788Z,1.00
2022-09-20T04:54:57.673Z,0.80
2022-09-20T04:57:42.576Z,0.80
2022-09-20T05:00:12.853Z,0.80
2022-09-20T05:02:55.104Z,0.73
2022-09-20T05:05:45.766Z,0.80
2022-09-20T05:08:31.706Z,0.70
2022-09-20T05:11:17.845Z,0.67
2022-09-20T05:13:58.624Z,0.80
2022-09-20T05:16:31.909Z,0.97
2022-09-20T05:19:10.151Z,0.70
2022-09-20T05:21:54.674Z,0.60
2022-09-20T05:24:30.740Z,0.63
2022-09-20T05:27:07.033Z,0.90
2022-09-20T05:29:38.224Z,0.80
2022-09-20T05:32:11.114Z,1.00
2022-09-20T05:34:44.452Z,0.60
2022-09-20T05:37:18.442Z,1.00
2022-09-20T05:39:50.304Z,1.07
2022-09-20T05:42:21.419Z,1.10
2022-09-20T05:44:56.087Z,1.20
2022-09-20T05:47:28.878Z,1.10
2022-09-20T05:50:01.843Z,1.40
2022-09-20T05:52:35.688Z,1.03
2022-09-20T05:55:17.954Z,1.17
2022-09-20T05:57:56.555Z,0.90
2022-09-20T06:00:29.059Z,0.80
2022-09-20T06:03:01.562Z,1.00
2022-09-20T06:05:34.878Z,1.00
2022-09-20T06:08:16.581Z,1.10
2022-09-20T06:11:01.457Z,1.17
2022-09-20T06:13:34.841Z,1.40
2022-09-20T06:16:04.528Z,1.10
2022-09-20T06:18:34.956Z,1.10
2022-09-20T06:21:09.410Z,1.37
2022-09-20T06:23:39.130Z,1.37
2022-09-20T06:26:10.175Z,1.40
2022-09-20T06:28:41.380Z,1.40
2022-09-20T06:31:11.389Z,1.60
2022-09-20T06:33:44.283Z,1.33
2022-09-20T06:36:28.320Z,1.53
2022-09-20T06:39:20.400Z,1.57
2022-09-20T06:41:49.607Z,1.50
2022-09-20T06:44:17.843Z,1.30
2022-09-20T06:46:46.124Z,1.90
2022-09-20T06:49:14.488Z,1.90
2022-09-20T06:51:43.480Z,1.37
2022-09-20T06:54:17.528Z,1.97
2022-09-20T06:56:47.391Z,2.03
2022-09-20T06:59:16.158Z,1.90
2022-09-20T07:01:45.254Z,1.80
2022-09-20T07:04:13.572Z,1.60
2022-09-20T07:06:41.954Z,1.70
2022-09-20T07:09:12.693Z,1.80
2022-09-20T07:11:43.116Z,1.67
2022-09-20T07:14:11.333Z,1.67
2022-09-20T07:16:40.251Z,1.57
2022-09-20T07:19:08.610Z,1.47
2022-09-20T07:21:39.236Z,1.53
2022-09-20T07:24:07.773Z,1.37
2022-09-20T07:26:36.092Z,1.30
2022-09-20T07:29:06.706Z,1.73
2022-09-20T07:31:35.368Z,1.10
2022-09-20T07:34:03.640Z,1.27
2022-09-20T07:36:31.900Z,1.17
2022-09-20T07:39:00.212Z,0.90
2022-09-20T07:41:30.470Z,1.10
2022-09-20T07:44:18.965Z,1.20
2022-09-20T07:46:59.711Z,0.80
2022-09-20T07:49:29.919Z,1.20
2022-09-20T07:51:58.604Z,1.20
2022-09-20T07:54:28.464Z,1.53
2022-09-20T07:57:05.649Z,1.00
2022-09-20T07:59:33.951Z,0.90
2022-09-20T08:02:03.993Z,1.07
2022-09-20T08:04:32.256Z,0.70
2022-09-20T08:07:01.621Z,0.60
2022-09-20T08:09:29.883Z,0.80
2022-09-20T08:11:58.473Z,0.70
2022-09-20T08:14:26.704Z,0.70
2022-09-20T08:16:59.250Z,0.70
2022-09-20T08:19:30.405Z,0.80
2022-09-20T08:21:58.698Z,0.60
2022-09-20T08:24:27.230Z,0.60
2022-09-20T08:26:55.499Z,0.60
2022-09-20T08:29:23.829Z,0.53
2022-09-20T08:31:52.584Z,0.93
2022-09-20T08:34:21.011Z,0.77
2022-09-20T08:36:52.767Z,0.60
2022-09-20T08:42:13.083Z,0.67
2022-09-20T08:44:46.865Z,0.68
2022-09-20T08:47:18.237Z,0.70
2022-09-20T08:49:46.716Z,0.90
2022-09-20T08:52:19.082Z,0.77
2022-09-20T08:54:47.779Z,0.80
2022-09-20T08:57:17.280Z,0.97
2022-09-20T08:59:46.050Z,0.90
2022-09-20T09:02:16.981Z,0.60
2022-09-20T09:04:45.789Z,0.60
2022-09-20T09:07:14.718Z,0.70
2022-09-20T09:09:46.587Z,0.47
2022-09-20T09:12:23.625Z,0.53
2022-09-20T09:14:55.186Z,0.60
2022-09-20T09:17:27.318Z,0.60
2022-09-20T09:19:56.961Z,0.70
2022-09-20T09:22:26.884Z,0.90
2022-09-20T09:25:34.230Z,0.70
2022-09-20T09:28:03.783Z,0.80
2022-09-20T09:30:33.217Z,0.90
2022-09-20T09:33:26.616Z,0.90
2022-09-20T09:35:56.120Z,0.90
2022-09-20T09:38:25.594Z,0.90
2022-09-20T09:40:56.043Z,1.00
2022-09-20T09:43:27.246Z,1.00
2022-09-20T09:45:56.042Z,0.80
2022-09-20T09:48:28.111Z,0.70
2022-09-20T09:51:09.877Z,0.87
2022-09-20T09:53:38.450Z,0.80
2022-09-20T09:56:17.954Z,0.60
2022-09-20T09:58:55.527Z,0.77
2022-09-20T10:01:32.518Z,0.70
2022-09-20T10:04:05.985Z,0.57
2022-09-20T10:06:39.135Z,0.63
2022-09-20T10:09:19.247Z,0.80
2022-09-20T10:11:58.705Z,0.90
2022-09-20T10:14:35.944Z,0.65
2022-09-20T10:17:13.775Z,0.80
2022-09-20T10:19:47.183Z,0.80
2022-09-20T10:22:19.685Z,0.68
2022-09-20T10:24:51.658Z,0.60
2022-09-20T10:27:25.347Z,0.70
2022-09-20T10:29:58.206Z,0.73
2022-09-20T10:32:33.973Z,0.60
2022-09-20T10:35:14.337Z,0.80
2022-09-20T10:37:49.528Z,0.77
2022-09-20T10:40:21.300Z,0.90
2022-09-20T10:43:09.892Z,0.70
2022-09-20T10:46:14.093Z,0.60
2022-09-20T10:48:33.868Z,0.70
2022-09-20T10:51:03.809Z,0.52
2022-09-20T10:53:38.607Z,0.70
2022-09-20T10:56:12.152Z,0.73
2022-09-20T10:58:59.205Z,1.00
2022-09-20T11:01:34.557Z,0.80
2022-09-20T11:04:13.642Z,0.90
2022-09-20T11:06:46.972Z,0.85
2022-09-20T11:09:18.017Z,0.90
2022-09-20T11:11:48.414Z,0.70
2022-09-20T11:14:21.369Z,0.98
2022-09-20T11:16:52.785Z,1.00
2022-09-20T11:19:26.696Z,1.00
2022-09-20T11:21:56.890Z,0.80
2022-09-20T11:24:29.880Z,0.70
2022-09-20T11:26:59.948Z,0.55
2022-09-20T11:29:32.741Z,0.73
2022-09-20T11:32:04.828Z,1.08
2022-09-20T11:34:34.853Z,0.93
2022-09-20T11:37:03.930Z,0.47
2022-09-20T11:39:37.451Z,0.50
2022-09-20T11:42:06.861Z,0.50
2022-09-20T11:44:37.855Z,0.40
2022-09-20T11:47:11.687Z,0.50
2022-09-20T11:49:48.061Z,0.63
2022-09-20T11:52:28.805Z,0.40
2022-09-20T11:55:03.124Z,0.70
2022-09-20T11:57:34.663Z,0.75
2022-09-20T12:00:04.079Z,0.80
2022-09-20T12:02:37.185Z,0.68
2022-09-20T12:05:05.927Z,0.43
2022-09-20T12:07:36.685Z,0.68
2022-09-20T12:10:07.718Z,0.77
2022-09-20T12:12:38.616Z,0.73
2022-09-20T12:15:08.541Z,0.50
2022-09-20T12:17:55.785Z,0.50
2022-09-20T12:20:48.004Z,0.60
2022-09-20T12:23:35.277Z,0.65
2022-09-20T12:26:05.943Z,1.07
2022-09-20T12:28:35.219Z,0.50
2022-09-20T12:31:18.513Z,0.60
2022-09-20T12:33:56.998Z,0.70
2022-09-20T12:36:25.788Z,0.75
2022-09-20T12:39:02.798Z,0.68
2022-09-20T12:41:46.505Z,0.82
2022-09-20T12:44:35.647Z,0.82
2022-09-20T12:47:05.113Z,0.68
2022-09-20T12:49:53.175Z,0.70
2022-09-20T12:52:53.462Z,0.80
2022-09-20T12:55:30.201Z,1.25
2022-09-20T12:58:02.082Z,0.60
2022-09-20T13:00:36.312Z,0.80
2022-09-20T13:03:12.522Z,0.70
2022-09-20T13:05:41.997Z,0.63
2022-09-20T13:08:14.852Z,0.60
2022-09-20T13:10:45.661Z,0.80
2022-09-20T13:13:32.665Z,0.50
2022-09-20T13:16:05.748Z,0.50
2022-09-20T13:18:34.544Z,0.40
2022-09-20T13:21:06.426Z,0.40
2022-09-20T13:23:38.259Z,0.52
2022-09-20T13:26:08.402Z,0.60
2022-09-20T13:28:40.299Z,0.45
2022-09-20T13:31:24.086Z,0.50
2022-09-20T13:33:52.670Z,0.57
2022-09-20T13:36:26.211Z,0.60
2022-09-20T13:38:55.650Z,0.73
2022-09-20T13:41:24.280Z,0.77
2022-09-20T13:43:53.090Z,0.60
2022-09-20T13:46:25.919Z,0.70
2022-09-20T13:48:55.703Z,0.60
2022-09-20T13:51:26.308Z,0.70
2022-09-20T13:53:54.788Z,0.63
2022-09-20T13:56:24.444Z,1.05
2022-09-20T13:58:53.695Z,0.60
2022-09-20T14:01:25.902Z,0.45
2022-09-20T14:03:54.875Z,0.50
2022-09-20T14:06:28.301Z,0.50
2022-09-20T14:08:56.967Z,0.65
2022-09-20T14:11:27.142Z,0.55
2022-09-20T14:13:56.738Z,0.52
2022-09-20T14:16:30.209Z,0.77
2022-09-20T14:18:59.206Z,0.47
2022-09-20T14:21:28.292Z,0.90
2022-09-20T14:23:58.259Z,0.32
2022-09-20T14:26:27.952Z,0.40
2022-09-20T14:28:56.687Z,0.40
2022-09-20T14:31:27.630Z,0.60
2022-09-20T14:33:57.930Z,0.40
2022-09-20T14:36:28.488Z,0.43
2022-09-20T14:38:58.044Z,0.40
2022-09-20T14:41:28.913Z,0.60
2022-09-20T14:43:58.641Z,0.50
2022-09-20T14:46:34.013Z,0.60
2022-09-20T14:49:21.577Z,0.50
2022-09-20T14:51:50.164Z,0.30
2022-09-20T14:54:26.935Z,0.50
2022-09-20T14:56:57.820Z,0.50
2022-09-20T14:59:27.552Z,0.63
2022-09-20T15:02:02.913Z,0.60
2022-09-20T15:04:32.726Z,0.60
2022-09-20T15:07:03.153Z,0.60
2022-09-20T15:09:31.409Z,0.68
2022-09-20T15:12:03.566Z,0.43
2022-09-20T15:14:36.513Z,0.90
2022-09-20T15:17:07.299Z,0.45
2022-09-20T15:19:35.695Z,0.45
2022-09-20T15:22:04.160Z,0.40
2022-09-20T15:24:32.459Z,0.70
2022-09-20T15:27:00.777Z,0.82
2022-09-20T15:29:29.144Z,0.77
2022-09-20T15:31:57.457Z,0.75
2022-09-20T15:34:27.169Z,0.68
2022-09-20T15:36:55.917Z,0.63
2022-09-20T15:39:24.689Z,0.52
2022-09-20T15:41:53.535Z,0.50
2022-09-20T15:44:22.025Z,0.47
2022-09-20T15:46:53.245Z,0.50
2022-09-20T15:49:22.177Z,1.00
2022-09-20T15:51:52.678Z,0.52
2022-09-20T15:54:21.187Z,0.63
2022-09-20T15:56:51.082Z,0.93
2022-09-20T15:59:23.094Z,0.98
2022-09-20T16:01:51.743Z,0.63
2022-09-20T16:04:21.045Z,0.85
2022-09-20T16:06:50.339Z,0.80
2022-09-20T16:09:20.428Z,0.70
2022-09-20T16:11:48.913Z,0.80
2022-09-20T16:14:17.221Z,0.88
2022-09-20T16:16:45.726Z,1.13
2022-09-20T16:19:20.816Z,0.70
2022-09-20T16:21:55.062Z,0.90
2022-09-20T16:24:27.035Z,0.90
2022-09-20T16:26:55.313Z,1.00
2022-09-20T16:29:25.041Z,0.80
2022-09-20T16:31:53.829Z,0.68
2022-09-20T16:34:23.890Z,0.60
2022-09-20T16:36:53.107Z,0.60
2022-09-20T16:39:25.253Z,0.80
2022-09-20T16:41:57.097Z,0.50
2022-09-20T16:44:25.734Z,0.55
2022-09-20T16:46:53.951Z,0.80
2022-09-20T16:49:26.833Z,0.80
2022-09-20T16:51:55.395Z,0.80
2022-09-20T16:54:27.345Z,0.73
2022-09-20T16:56:59.299Z,0.70
2022-09-20T16:59:27.575Z,0.90
2022-09-20T17:01:55.814Z,0.50
2022-09-20T17:04:24.112Z,0.50
2022-09-20T17:06:52.447Z,0.70
2022-09-20T17:09:21.171Z,0.68
2022-09-20T17:11:51.258Z,0.52
2022-09-20T17:14:22.123Z,0.73
2022-09-20T17:16:51.084Z,0.60
2022-09-20T17:19:20.424Z,0.70
2022-09-20T17:21:50.087Z,0.82
2022-09-20T17:24:18.931Z,0.88
2022-09-20T17:26:47.604Z,0.85
2022-09-20T17:29:17.444Z,0.77
2022-09-20T17:31:54.147Z,0.70
2022-09-20T17:34:23.795Z,0.77
2022-09-20T17:36:52.197Z,0.80
2022-09-20T17:39:20.428Z,1.00
2022-09-20T17:41:49.260Z,1.05
2022-09-20T17:44:17.918Z,1.05
2022-09-20T17:46:49.581Z,0.85
2022-09-20T17:49:19.374Z,1.13
2022-09-20T17:51:48.331Z,1.00
2022-09-20T17:54:17.212Z,1.20
2022-09-20T17:56:47.079Z,1.10
2022-09-20T17:59:16.557Z,1.05
2022-09-20T18:01:45.334Z,0.80
2022-09-20T18:04:15.885Z,1.00
2022-09-20T18:06:46.925Z,1.08
2022-09-20T18:09:16.349Z,1.00
2022-09-20T18:11:45.352Z,0.82
2022-09-20T18:14:13.928Z,0.90
2022-09-20T18:16:43.125Z,1.27
2022-09-20T18:19:12.174Z,1.00
2022-09-20T18:21:42.517Z,1.10
2022-09-20T18:24:13.967Z,1.50
2022-09-20T18:26:42.273Z,1.27
2022-09-20T18:29:12.301Z,1.05
2022-09-20T18:31:43.250Z,1.57
2022-09-20T18:34:17.915Z,1.70
2022-09-20T18:36:52.506Z,1.67
2022-09-20T18:39:21.805Z,1.40
2022-09-20T18:41:50.756Z,1.63
2022-09-20T18:44:19.506Z,1.90
2022-09-20T18:46:48.350Z,1.55
2022-09-20T18:49:17.121Z,1.67
2022-09-20T18:51:47.482Z,1.58
2022-09-20T18:54:17.834Z,1.60
2022-09-20T18:56:46.881Z,1.55
2022-09-20T18:59:16.882Z,1.60
2022-09-20T19:02:03.371Z,1.65
2022-09-20T19:04:56.624Z,1.67
2022-09-20T19:07:30.296Z,1.40
2022-09-20T19:10:03.036Z,2.10
2022-09-20T19:12:33.698Z,1.80
2022-09-20T19:15:06.903Z,1.40
2022-09-20T19:17:42.125Z,1.98
2022-09-20T19:20:13.987Z,1.83
2022-09-20T19:22:49.896Z,1.90
2022-09-20T19:25:25.233Z,2.22
2022-09-20T19:27:53.882Z,2.00
2022-09-20T19:30:22.880Z,2.45
2022-09-20T19:32:51.756Z,2.83
2022-09-20T19:35:23.937Z,3.40
2022-09-20T19:37:59.936Z,2.88
2022-09-20T19:40:36.879Z,2.92
2022-09-20T19:43:14.395Z,3.35
2022-09-20T19:45:48.103Z,2.80
2022-09-20T19:48:19.292Z,2.75
2022-09-20T19:50:51.228Z,2.20
2022-09-20T19:53:22.334Z,2.10
2022-09-20T19:55:53.968Z,2.75
2022-09-20T19:58:22.760Z,2.60
2022-09-20T20:00:51.829Z,2.60
2022-09-20T20:03:23.641Z,2.83
2022-09-20T20:05:56.125Z,2.63
2022-09-20T20:08:33.005Z,2.47
2022-09-20T20:11:05.251Z,3.05
2022-09-20T20:13:53.937Z,2.92
2022-09-20T20:16:25.867Z,2.60
2022-09-20T20:19:06.263Z,3.23
2022-09-20T20:21:41.890Z,3.10
2022-09-20T20:24:18.411Z,2.63
2022-09-20T20:26:48.200Z,2.90
2022-09-20T20:29:16.489Z,2.63
2022-09-20T20:31:44.869Z,2.67
2022-09-20T20:34:16.214Z,3.20
2022-09-20T20:36:44.741Z,2.70
2022-09-20T20:39:13.264Z,2.73
2022-09-20T20:41:41.610Z,2.57
2022-09-20T20:44:12.566Z,2.07
2022-09-20T20:46:40.954Z,2.10
2022-09-20T20:49:09.254Z,2.20
2022-09-20T20:51:37.581Z,2.10
2022-09-20T20:54:06.061Z,1.83
2022-09-20T20:56:34.483Z,1.60
2022-09-20T20:59:05.388Z,1.75
2022-09-20T21:01:35.756Z,1.47
2022-09-20T21:04:04.592Z,1.57
2022-09-20T21:06:34.464Z,1.90
2022-09-20T21:09:03.170Z,1.70
2022-09-20T21:11:33.341Z,1.30
2022-09-20T21:14:02.608Z,1.43
2022-09-20T21:16:31.899Z,1.50
2022-09-20T21:19:01.569Z,1.47
2022-09-20T21:21:31.092Z,1.70
2022-09-20T21:24:00.255Z,1.63
2022-09-20T21:26:32.214Z,1.50
2022-09-20T21:29:01.456Z,1.92
2022-09-20T21:31:30.825Z,1.70
2022-09-20T21:33:59.183Z,1.40
2022-09-20T21:36:29.697Z,1.20
2022-09-20T21:38:58.316Z,1.40
2022-09-20T21:41:27.556Z,1.20
2022-09-20T21:43:56.976Z,1.67
2022-09-20T21:46:28.284Z,1.57
2022-09-20T21:48:58.191Z,1.80
2022-09-20T21:51:29.763Z,1.50
2022-09-20T21:54:01.800Z,1.35
2022-09-20T21:56:32.041Z,1.70
2022-09-20T21:59:02.723Z,1.50
2022-09-20T22:01:33.540Z,1.63
2022-09-20T22:04:02.409Z,1.58
2022-09-20T22:06:32.500Z,1.52
2022-09-20T22:09:02.712Z,1.60
2022-09-20T22:11:32.103Z,2.13
2022-09-20T22:14:00.489Z,1.63
2022-09-20T22:16:29.781Z,2.20
2022-09-20T22:18:59.817Z,1.70
2022-09-20T22:21:29.242Z,1.60
2022-09-20T22:23:58.470Z,2.03
2022-09-20T22:26:30.246Z,1.63
2022-09-20T22:28:59.037Z,2.03
2022-09-20T22:31:28.844Z,1.40
2022-09-20T22:33:58.058Z,1.48
2022-09-20T22:36:27.562Z,1.70
2022-09-20T22:38:56.717Z,1.50
2022-09-20T22:41:25.863Z,1.30
2022-09-20T22:43:56.600Z,1.48
2022-09-20T22:46:26.011Z,1.70
2022-09-20T22:48:54.775Z,1.43
2022-09-20T22:51:24.729Z,1.57
2022-09-20T22:53:53.937Z,1.20
2022-09-20T22:56:23.371Z,1.77
2022-09-20T22:58:52.905Z,1.20
2022-09-20T23:01:24.045Z,2.20
2022-09-20T23:03:55.879Z,1.60
2022-09-20T23:06:26.080Z,1.63
2022-09-20T23:08:55.296Z,1.63
2022-09-20T23:11:24.098Z,1.70
2022-09-20T23:13:55.633Z,1.63
2022-09-20T23:16:26.844Z,1.70
2022-09-20T23:18:56.292Z,1.93
2022-09-20T23:21:25.221Z,1.80
2022-09-20T23:23:56.978Z,1.80
2022-09-20T23:26:26.510Z,2.13
2022-09-20T23:28:55.723Z,1.90
2022-09-20T23:31:26.098Z,2.20
2022-09-20T23:33:55.329Z,2.07
2022-09-20T23:36:24.408Z,1.90
2022-09-20T23:38:53.001Z,2.00
2022-09-20T23:41:22.363Z,2.37
2022-09-20T23:43:51.793Z,2.00
2022-09-20T23:46:21.188Z,2.13
2022-09-20T23:48:51.423Z,2.40
2022-09-20T23:51:22.555Z,2.30
2022-09-20T23:53:51.626Z,2.63
2022-09-20T23:56:20.729Z,2.20
2022-09-20T23:58:49.814Z,2.50
